< Typhoon 198319 1983 Season Typhoon 198321 >
Typhoon 198320 (PERCY)
General InformationTrack Information on Google MapsDetailed Wind InformationList of All Images || Disaster Info.ResourceGoogle EarthGE AnimationAtom FeedGeoJSON
Detalied Best Track (Time Zone = UTC)
Year Month Day Hour Lat. Long. Pressure (hPa) Wind (kt) Class Image Chart
1983 11 18 00 10.0 112.0 1008 0 2 Image Chart
1983 11 18 06 9.5 112.5 1004 0 2 Image Chart
1983 11 18 12 9.5 112.5 1004 0 2 Image Chart
1983 11 18 18 9.0 112.0 1000 0 2 Image Chart
1983 11 19 00 9.4 113.1 996 35 3 Image Chart
1983 11 19 06 8.8 112.8 990 50 4 Image Chart
1983 11 19 12 8.1 112.6 985 55 4 Image Chart
1983 11 19 18 7.8 112.1 985 60 4 Image Chart
1983 11 20 00 7.4 111.7 980 65 5 Image Chart
1983 11 20 06 7.2 111.6 975 65 5 Image Chart
1983 11 20 12 7.3 111.4 970 70 5 Image Chart
1983 11 20 18 7.4 111.3 975 70 5 Image Chart
1983 11 21 00 7.6 111.6 980 70 5 Image Chart
1983 11 21 06 7.6 111.8 985 70 5 Image Chart
1983 11 21 12 7.6 112.0 985 60 4 Image Chart
1983 11 21 18 7.7 112.4 990 60 4 Image Chart
1983 11 22 00 7.8 112.7 990 50 4 Image Chart
1983 11 22 06 7.8 113.0 996 50 4 Image Chart
1983 11 22 12 7.9 113.4 1000 45 3 Image Chart
1983 11 22 18 8.2 114.1 1000 40 3 Image Chart
1983 11 23 00 8.3 114.8 1000 35 3 Image Chart
1983 11 23 06 8.5 115.7 1004 0 2 Image Chart
1983 11 23 12 8.8 116.6 1004 0 2 Image Chart
1983 11 23 18 9.5 117.5 1004 0 2 Image Chart
1983 11 24 00 10.0 119.0 1007 0 2 Image Chart
1983 11 24 06 10.5 119.6 1004 0 2 Image Chart
1983 11 24 12 10.6 120.6 1006 0 2 Image Chart
1983 11 24 18 11.2 122.0 1006 0 2 Image Chart
1983 11 25 00 12.0 123.0 1008 0 2 Image Chart
Japan Meteorological Agency Best Track Data | Correction Date : 1992-10-21
< Typhoon 198319 1983 Season Typhoon 198321 >

Help